createdAt,value
2018-07-24T00:02:21.832Z,7.53
2018-07-24T00:04:50.315Z,7.63
2018-07-24T00:07:18.781Z,7.90
2018-07-24T00:09:47.255Z,6.67
2018-07-24T00:12:15.814Z,6.07
2018-07-24T00:14:44.393Z,6.50
2018-07-24T00:17:12.926Z,7.47
2018-07-24T00:19:41.383Z,6.50
2018-07-24T00:22:09.907Z,7.03
2018-07-24T00:24:38.486Z,6.73
2018-07-24T00:27:06.938Z,8.63
2018-07-24T00:29:35.389Z,7.10
2018-07-24T00:32:03.877Z,7.13
2018-07-24T00:34:32.482Z,8.93
2018-07-24T00:37:00.952Z,8.37
2018-07-24T00:39:29.418Z,10.23
2018-07-24T00:41:57.846Z,6.80
2018-07-24T00:44:26.347Z,8.03
2018-07-24T00:46:54.837Z,7.97
2018-07-24T00:49:23.311Z,7.87
2018-07-24T00:51:51.741Z,6.73
2018-07-24T00:54:20.253Z,7.10
2018-07-24T00:56:48.737Z,7.23
2018-07-24T00:59:17.236Z,6.20
2018-07-24T01:01:45.733Z,7.30
2018-07-24T01:04:14.308Z,6.90
2018-07-24T01:06:42.777Z,5.90
2018-07-24T01:09:12.029Z,6.93
2018-07-24T01:11:41.025Z,6.60
2018-07-24T01:14:10.110Z,6.93
2018-07-24T01:16:38.562Z,6.93
2018-07-24T01:19:07.144Z,8.87
2018-07-24T01:21:35.351Z,9.10
2018-07-24T01:24:03.861Z,9.47
2018-07-24T01:26:32.327Z,11.40
2018-07-24T01:29:00.818Z,9.87
2018-07-24T01:31:29.282Z,7.23
2018-07-24T01:33:58.484Z,10.13
2018-07-24T01:36:27.078Z,9.20
2018-07-24T01:38:55.568Z,8.73
2018-07-24T01:41:24.043Z,8.80
2018-07-24T01:43:52.591Z,8.23
2018-07-24T01:46:21.058Z,6.87
2018-07-24T01:48:49.562Z,6.73
2018-07-24T01:51:18.046Z,8.73
2018-07-24T01:53:46.588Z,7.47
2018-07-24T01:56:15.045Z,6.63
2018-07-24T01:58:43.507Z,6.63
2018-07-24T02:01:11.968Z,8.33
2018-07-24T02:03:40.552Z,7.93
2018-07-24T02:06:09.027Z,8.53
2018-07-24T02:08:37.479Z,6.03
2018-07-24T02:11:05.964Z,6.77
2018-07-24T02:13:34.466Z,7.43
2018-07-24T02:16:02.938Z,6.60
2018-07-24T02:18:31.105Z,8.47
2018-07-24T02:20:59.568Z,6.73
2018-07-24T02:23:29.110Z,5.67
2018-07-24T02:25:57.668Z,6.27
2018-07-24T02:28:26.149Z,6.80
2018-07-24T02:30:54.618Z,6.90
2018-07-24T02:33:23.121Z,6.57
2018-07-24T02:35:51.650Z,7.40
2018-07-24T02:38:20.139Z,8.57
2018-07-24T02:40:48.620Z,6.07
2018-07-24T02:43:17.172Z,10.70
2018-07-24T02:45:45.681Z,8.10
2018-07-24T02:48:14.139Z,8.27
2018-07-24T02:50:42.653Z,6.57
2018-07-24T02:53:11.190Z,6.40
2018-07-24T02:55:39.681Z,7.90
2018-07-24T02:58:08.155Z,7.17
2018-07-24T03:00:36.606Z,6.60
2018-07-24T03:03:05.165Z,7.17
2018-07-24T03:05:33.598Z,8.20
2018-07-24T03:08:02.063Z,8.17
2018-07-24T03:10:30.524Z,6.63
2018-07-24T03:12:59.004Z,7.57
2018-07-24T03:15:27.532Z,7.20
2018-07-24T03:17:55.973Z,10.60
2018-07-24T03:20:24.546Z,7.43
2018-07-24T03:22:53.094Z,7.67
2018-07-24T03:25:21.535Z,8.23
2018-07-24T03:27:50.001Z,8.33
2018-07-24T03:30:18.499Z,6.33
2018-07-24T03:32:47.017Z,8.43
2018-07-24T03:35:15.481Z,8.73
2018-07-24T03:37:43.925Z,7.53
2018-07-24T03:40:12.368Z,8.97
2018-07-24T03:42:40.930Z,7.63
2018-07-24T03:45:09.147Z,11.57
2018-07-24T03:47:37.563Z,9.77
2018-07-24T03:50:06.037Z,7.50
2018-07-24T03:52:34.529Z,6.40
2018-07-24T03:55:02.975Z,6.93
2018-07-24T03:57:31.409Z,8.90
2018-07-24T03:59:59.883Z,6.97
2018-07-24T04:02:28.428Z,8.60
2018-07-24T04:04:56.823Z,7.67
2018-07-24T04:07:25.294Z,7.97
2018-07-24T04:09:53.751Z,8.03
2018-07-24T04:12:22.248Z,10.23
2018-07-24T04:14:50.799Z,8.73
2018-07-24T04:17:19.266Z,8.23
2018-07-24T04:19:47.733Z,8.17
2018-07-24T04:22:16.263Z,8.03
2018-07-24T04:24:44.824Z,9.67
2018-07-24T04:27:13.290Z,9.10
2018-07-24T04:29:41.745Z,7.40
2018-07-24T04:32:10.384Z,9.13
2018-07-24T04:34:38.962Z,11.37
2018-07-24T04:37:07.464Z,13.63
2018-07-24T04:39:35.925Z,8.50
2018-07-24T04:42:04.398Z,8.77
2018-07-24T04:44:32.601Z,10.77
2018-07-24T04:47:01.050Z,12.73
2018-07-24T04:49:29.200Z,10.60
2018-07-24T04:51:57.687Z,13.93
2018-07-24T04:54:26.214Z,12.67
2018-07-24T04:56:54.669Z,11.07
2018-07-24T04:59:23.136Z,14.13
2018-07-24T05:01:51.590Z,12.87
2018-07-24T05:04:20.146Z,12.57
2018-07-24T05:06:48.625Z,11.97
2018-07-24T05:09:17.114Z,14.63
2018-07-24T05:11:45.572Z,15.03
2018-07-24T05:14:14.057Z,13.57
2018-07-24T05:16:43.058Z,15.43
2018-07-24T05:19:11.497Z,16.30
2018-07-24T05:21:39.981Z,13.93
2018-07-24T05:24:08.480Z,15.50
2018-07-24T05:26:36.965Z,12.60
2018-07-24T05:29:05.464Z,19.50
2018-07-24T05:31:33.975Z,13.20
2018-07-24T05:34:02.541Z,16.07
2018-07-24T05:36:31.384Z,14.87
2018-07-24T05:38:59.849Z,15.23
2018-07-24T05:41:28.338Z,12.60
2018-07-24T05:43:57.183Z,14.03
2018-07-24T05:46:25.746Z,13.53
2018-07-24T05:48:54.328Z,25.40
2018-07-24T05:51:22.767Z,14.43
2018-07-24T05:53:51.324Z,14.43
2018-07-24T05:56:19.774Z,16.97
2018-07-24T05:58:48.286Z,21.30
2018-07-24T06:01:16.806Z,25.47
2018-07-24T06:03:45.344Z,25.23
2018-07-24T06:06:13.859Z,19.10
2018-07-24T06:08:42.347Z,21.40
2018-07-24T06:11:10.842Z,10.50
2018-07-24T06:13:39.431Z,12.17
2018-07-24T06:16:07.932Z,9.63
2018-07-24T06:18:36.453Z,13.10
2018-07-24T06:21:05.007Z,14.47
2018-07-24T06:23:33.663Z,17.73
2018-07-24T06:26:02.254Z,16.60
2018-07-24T06:28:30.723Z,18.23
2018-07-24T06:30:59.211Z,14.87
2018-07-24T06:33:27.759Z,21.67
2018-07-24T06:35:56.216Z,25.30
2018-07-24T06:38:24.690Z,19.80
2018-07-24T06:40:53.221Z,21.00
2018-07-24T06:43:21.762Z,10.70
2018-07-24T06:45:50.350Z,13.83
2018-07-24T06:48:18.824Z,11.37
2018-07-24T06:50:47.311Z,13.80
2018-07-24T06:53:15.843Z,10.60
2018-07-24T06:55:44.430Z,12.53
2018-07-24T06:58:12.902Z,11.20
2018-07-24T07:00:41.394Z,11.20
2018-07-24T07:03:09.949Z,12.77
2018-07-24T07:05:38.552Z,13.27
2018-07-24T07:08:07.083Z,9.67
2018-07-24T07:10:35.631Z,14.47
2018-07-24T07:13:04.193Z,13.10
2018-07-24T07:15:32.802Z,10.57
2018-07-24T07:18:01.280Z,14.30
2018-07-24T07:20:29.814Z,13.80
2018-07-24T07:22:58.439Z,14.33
2018-07-24T07:25:27.021Z,12.87
2018-07-24T07:27:55.505Z,12.27
2018-07-24T07:30:23.988Z,9.93
2018-07-24T07:32:52.545Z,13.30
2018-07-24T07:35:21.046Z,13.73
2018-07-24T07:37:49.574Z,12.03
2018-07-24T07:40:18.103Z,12.17
2018-07-24T07:42:46.690Z,9.83
2018-07-24T07:45:15.245Z,11.07
2018-07-24T07:47:43.768Z,8.73
2018-07-24T07:50:12.239Z,28.30
2018-07-24T07:52:40.826Z,30.87
2018-07-24T07:55:09.317Z,14.27
2018-07-24T07:57:37.808Z,11.07
2018-07-24T08:00:06.578Z,12.10
2018-07-24T08:02:35.199Z,12.60
2018-07-24T08:05:03.727Z,9.60
2018-07-24T08:07:32.209Z,11.27
2018-07-24T08:10:00.807Z,9.20
2018-07-24T08:12:29.945Z,13.83
2018-07-24T08:14:58.534Z,12.87
2018-07-24T08:17:27.757Z,11.57
2018-07-24T08:19:56.231Z,12.30
2018-07-24T08:22:24.441Z,8.40
2018-07-24T08:24:52.994Z,11.70
2018-07-24T08:27:21.236Z,11.80
2018-07-24T08:29:49.786Z,8.93
2018-07-24T08:32:18.265Z,9.07
2018-07-24T08:34:46.867Z,10.03
2018-07-24T08:37:15.351Z,9.87
2018-07-24T08:39:43.821Z,7.90
2018-07-24T08:42:12.271Z,7.70
2018-07-24T08:44:40.770Z,6.07
2018-07-24T08:47:09.370Z,5.93
2018-07-24T08:49:37.901Z,13.67
2018-07-24T08:52:06.379Z,8.47
2018-07-24T08:54:35.034Z,8.53
2018-07-24T08:57:03.501Z,8.87
2018-07-24T08:59:31.974Z,9.17
2018-07-24T09:02:00.986Z,11.20
2018-07-24T09:04:29.634Z,7.17
2018-07-24T09:06:58.578Z,8.90
2018-07-24T09:09:27.084Z,7.47
2018-07-24T09:11:55.738Z,11.17
2018-07-24T09:14:24.294Z,7.53
2018-07-24T09:16:52.774Z,7.93
2018-07-24T09:19:21.294Z,9.90
2018-07-24T09:21:49.952Z,10.23
2018-07-24T09:24:18.485Z,11.77
2018-07-24T09:26:46.942Z,11.17
2018-07-24T09:29:16.808Z,10.00
2018-07-24T09:31:45.771Z,8.60
2018-07-24T09:34:14.342Z,8.17
2018-07-24T09:36:42.841Z,10.57
2018-07-24T09:39:11.506Z,10.03
2018-07-24T09:41:41.539Z,8.23
2018-07-24T09:44:10.079Z,9.67
2018-07-24T09:46:38.570Z,11.33
2018-07-24T09:49:07.082Z,12.73
2018-07-24T09:51:35.656Z,10.17
2018-07-24T09:54:04.207Z,9.17
2018-07-24T09:56:33.912Z,10.23
2018-07-24T09:59:02.589Z,8.33
2018-07-24T10:01:34.119Z,6.53
2018-07-24T10:04:03.624Z,7.00
2018-07-24T10:06:33.254Z,5.27
2018-07-24T10:09:01.697Z,8.87
2018-07-24T10:11:30.148Z,6.03
2018-07-24T10:13:58.728Z,4.07
2018-07-24T10:16:27.238Z,4.83
2018-07-24T10:18:55.743Z,5.73
2018-07-24T10:21:24.149Z,4.83
2018-07-24T10:23:52.726Z,3.00
2018-07-24T10:26:21.165Z,5.27
2018-07-24T10:28:49.688Z,6.00
2018-07-24T10:31:18.142Z,3.83
2018-07-24T10:33:46.711Z,5.27
2018-07-24T10:36:15.186Z,7.53
2018-07-24T10:38:43.712Z,5.07
2018-07-24T10:41:11.960Z,4.60
2018-07-24T10:43:40.466Z,5.27
2018-07-24T10:46:09.006Z,4.27
2018-07-24T10:48:37.463Z,4.80
2018-07-24T10:51:05.975Z,3.47
2018-07-24T10:53:34.575Z,6.43
2018-07-24T10:56:03.058Z,5.17
2018-07-24T10:58:31.558Z,5.50
2018-07-24T11:01:00.055Z,3.63
2018-07-24T11:03:28.522Z,3.03
2018-07-24T11:05:56.678Z,5.17
2018-07-24T11:08:25.190Z,3.57
2018-07-24T11:10:53.724Z,4.20
2018-07-24T11:13:22.311Z,3.63
2018-07-24T11:15:50.746Z,4.77
2018-07-24T11:18:19.249Z,2.90
2018-07-24T11:20:47.798Z,3.77
2018-07-24T11:23:16.575Z,2.57
2018-07-24T11:25:44.918Z,5.17
2018-07-24T11:28:13.402Z,4.60
2018-07-24T11:30:41.879Z,2.93
2018-07-24T11:33:10.567Z,4.77
2018-07-24T11:35:39.067Z,4.30
2018-07-24T11:38:07.506Z,5.53
2018-07-24T11:40:36.022Z,4.83
2018-07-24T11:43:04.591Z,4.13
2018-07-24T11:45:33.051Z,4.03
2018-07-24T11:48:08.025Z,3.83
2018-07-24T11:50:36.560Z,5.00
2018-07-24T11:53:05.146Z,5.97
2018-07-24T11:55:33.686Z,5.73
2018-07-24T11:58:02.195Z,5.93
2018-07-24T12:00:30.788Z,4.40
2018-07-24T12:02:59.348Z,4.67
2018-07-24T12:05:27.794Z,5.00
2018-07-24T12:07:56.351Z,4.17
2018-07-24T12:10:24.797Z,3.87
2018-07-24T12:12:53.330Z,6.77
2018-07-24T12:15:21.805Z,4.07
2018-07-24T12:17:50.326Z,2.60
2018-07-24T12:20:18.802Z,3.73
2018-07-24T12:22:47.341Z,3.70
2018-07-24T12:25:15.891Z,3.87
2018-07-24T12:27:44.456Z,3.23
2018-07-24T12:30:13.015Z,4.83
2018-07-24T12:32:41.582Z,5.00
2018-07-24T12:35:10.054Z,2.90
2018-07-24T12:37:38.502Z,3.70
2018-07-24T12:40:07.248Z,3.70
2018-07-24T12:42:36.265Z,4.07
2018-07-24T12:45:04.825Z,7.23
2018-07-24T12:47:33.349Z,4.80
2018-07-24T12:50:01.794Z,3.30
2018-07-24T12:52:30.299Z,4.83
2018-07-24T12:54:58.838Z,5.90
2018-07-24T12:57:27.351Z,5.70
2018-07-24T12:59:55.529Z,5.47
2018-07-24T13:02:24.113Z,3.37
2018-07-24T13:04:53.163Z,6.00
2018-07-24T13:07:21.618Z,4.77
2018-07-24T13:09:50.920Z,3.30
2018-07-24T13:12:19.550Z,6.53
2018-07-24T13:14:48.112Z,2.90
2018-07-24T13:17:16.635Z,3.30
2018-07-24T13:19:45.250Z,3.23
2018-07-24T13:22:13.880Z,4.43
2018-07-24T13:24:42.901Z,5.57
2018-07-24T13:27:12.169Z,3.40
2018-07-24T13:29:40.727Z,3.27
2018-07-24T13:32:09.295Z,3.27
2018-07-24T13:34:37.743Z,2.90
2018-07-24T13:37:06.241Z,5.43
2018-07-24T13:39:34.756Z,6.33
2018-07-24T13:42:03.257Z,2.80
2018-07-24T13:44:31.846Z,4.70
2018-07-24T13:47:00.345Z,5.70
2018-07-24T13:49:28.816Z,4.27
2018-07-24T13:51:57.381Z,3.20
2018-07-24T13:54:26.137Z,2.80
2018-07-24T13:56:54.637Z,3.63
2018-07-24T13:59:23.178Z,2.90
2018-07-24T14:01:51.799Z,3.97
2018-07-24T14:04:20.396Z,4.97
2018-07-24T14:06:48.903Z,2.40
2018-07-24T14:09:17.417Z,3.07
2018-07-24T14:11:46.035Z,4.33
2018-07-24T14:14:14.681Z,3.53
2018-07-24T14:16:43.124Z,1.73
2018-07-24T14:19:11.605Z,5.03
2018-07-24T14:21:39.869Z,2.40
2018-07-24T14:24:08.427Z,2.17
2018-07-24T14:26:36.910Z,2.77
2018-07-24T14:29:05.358Z,1.77
2018-07-24T14:31:33.883Z,3.03
2018-07-24T14:34:02.424Z,2.30
2018-07-24T14:36:30.929Z,2.27
2018-07-24T14:38:59.433Z,2.73
2018-07-24T14:41:28.080Z,5.10
2018-07-24T14:43:56.675Z,4.10
2018-07-24T14:46:25.240Z,1.90
2018-07-24T14:48:53.690Z,2.37
2018-07-24T14:51:22.171Z,2.00
2018-07-24T14:53:50.670Z,2.93
2018-07-24T14:56:19.159Z,1.60
2018-07-24T14:58:47.664Z,1.83
2018-07-24T15:01:16.149Z,2.90
2018-07-24T15:03:44.824Z,2.20
2018-07-24T15:06:13.306Z,1.30
2018-07-24T15:08:41.946Z,2.80
2018-07-24T15:11:10.541Z,2.17
2018-07-24T15:13:39.117Z,3.47
2018-07-24T15:16:07.730Z,1.70
2018-07-24T15:18:36.264Z,2.27
2018-07-24T15:21:04.756Z,1.53
2018-07-24T15:23:33.330Z,1.67
2018-07-24T15:26:02.796Z,2.20
2018-07-24T15:28:31.465Z,2.60
2018-07-24T15:31:00.263Z,2.27
2018-07-24T15:33:28.877Z,1.97
2018-07-24T15:35:58.675Z,1.60
2018-07-24T15:38:27.238Z,1.77
2018-07-24T15:40:55.802Z,1.93
2018-07-24T15:43:24.490Z,2.67
2018-07-24T15:45:53.115Z,1.77
2018-07-24T15:48:21.591Z,2.80
2018-07-24T15:50:50.384Z,1.73
2018-07-24T15:53:19.108Z,3.03
2018-07-24T15:55:47.694Z,1.87
2018-07-24T15:58:16.304Z,2.30
2018-07-24T16:00:44.885Z,2.03
2018-07-24T16:03:13.542Z,2.67
2018-07-24T16:05:42.127Z,2.53
2018-07-24T16:08:10.639Z,1.97
2018-07-24T16:10:39.159Z,2.80
2018-07-24T16:13:07.746Z,1.23
2018-07-24T16:15:36.306Z,1.80
2018-07-24T16:18:04.608Z,2.70
2018-07-24T16:20:33.172Z,2.93
2018-07-24T16:23:01.806Z,2.37
2018-07-24T16:25:30.332Z,2.40
2018-07-24T16:27:58.844Z,2.47
2018-07-24T16:30:27.381Z,2.43
2018-07-24T16:32:55.937Z,5.10
2018-07-24T16:35:24.450Z,1.80
2018-07-24T16:37:52.990Z,2.87
2018-07-24T16:40:21.458Z,1.60
2018-07-24T16:42:50.032Z,2.33
2018-07-24T16:45:18.515Z,2.23
2018-07-24T16:47:46.982Z,2.93
2018-07-24T16:50:15.471Z,3.00
2018-07-24T16:52:44.122Z,2.17
2018-07-24T16:55:12.669Z,2.07
2018-07-24T16:57:41.243Z,2.67
2018-07-24T17:00:09.721Z,2.10
2018-07-24T17:02:38.373Z,3.00
2018-07-24T17:05:06.915Z,4.03
2018-07-24T17:07:35.426Z,2.13
2018-07-24T17:10:03.619Z,2.57
2018-07-24T17:12:32.180Z,2.47
2018-07-24T17:15:00.644Z,1.87
2018-07-24T17:17:29.122Z,2.83
2018-07-24T17:19:57.683Z,2.67
2018-07-24T17:22:26.253Z,2.53
2018-07-24T17:24:54.670Z,2.27
2018-07-24T17:27:23.216Z,2.10
2018-07-24T17:29:51.668Z,2.43
2018-07-24T17:32:20.175Z,2.27
2018-07-24T17:34:48.743Z,3.50
2018-07-24T17:37:17.316Z,2.97
2018-07-24T17:39:45.818Z,1.97
2018-07-24T17:42:14.335Z,3.03
2018-07-24T17:44:42.913Z,2.13
2018-07-24T17:47:11.563Z,2.23
2018-07-24T17:49:40.058Z,3.13
2018-07-24T17:52:08.681Z,4.10
2018-07-24T17:54:37.211Z,2.67
2018-07-24T17:57:05.954Z,3.13
2018-07-24T17:59:34.433Z,3.27
2018-07-24T18:02:02.954Z,2.33
2018-07-24T18:04:31.448Z,3.80
2018-07-24T18:06:59.942Z,2.63
2018-07-24T18:09:28.396Z,2.97
2018-07-24T18:11:56.858Z,3.60
2018-07-24T18:14:25.418Z,4.57
2018-07-24T18:16:53.894Z,4.50
2018-07-24T18:19:22.375Z,4.67
2018-07-24T18:21:50.856Z,3.13
2018-07-24T18:24:19.461Z,4.30
2018-07-24T18:26:48.355Z,4.50
2018-07-24T18:29:16.845Z,4.03
2018-07-24T18:31:45.389Z,10.47
2018-07-24T18:34:14.013Z,3.93
2018-07-24T18:36:42.544Z,4.20
2018-07-24T18:39:11.165Z,5.00
2018-07-24T18:41:39.640Z,3.03
2018-07-24T18:44:08.330Z,2.33
2018-07-24T18:46:36.492Z,4.17
2018-07-24T18:49:04.955Z,2.43
2018-07-24T18:51:33.465Z,4.47
2018-07-24T18:54:02.014Z,2.20
2018-07-24T18:56:30.548Z,2.67
2018-07-24T18:58:59.051Z,2.70
2018-07-24T19:01:27.644Z,4.60
2018-07-24T19:03:55.876Z,3.03
2018-07-24T19:06:24.491Z,3.47
2018-07-24T19:08:52.755Z,3.83
2018-07-24T19:11:21.418Z,5.17
2018-07-24T19:13:49.998Z,4.00
2018-07-24T19:16:18.463Z,3.23
2018-07-24T19:18:46.984Z,2.73
2018-07-24T19:21:15.469Z,2.77
2018-07-24T19:25:13.222Z,3.67
2018-07-24T19:27:41.721Z,3.10
2018-07-24T19:30:10.194Z,3.77
2018-07-24T19:32:38.790Z,3.03
2018-07-24T19:35:07.303Z,3.87
2018-07-24T19:37:35.744Z,3.40
2018-07-24T19:40:04.368Z,3.37
2018-07-24T19:42:32.874Z,3.17
2018-07-24T19:45:01.106Z,4.47
2018-07-24T19:47:29.648Z,2.37
2018-07-24T19:49:58.131Z,3.30
2018-07-24T19:52:26.678Z,3.77
2018-07-24T19:54:55.186Z,6.43
2018-07-24T19:57:23.670Z,5.47
2018-07-24T19:59:52.195Z,5.77
2018-07-24T20:02:20.717Z,3.40
2018-07-24T20:04:49.221Z,4.83
2018-07-24T20:07:17.722Z,4.60
2018-07-24T20:09:46.290Z,4.43
2018-07-24T20:12:14.794Z,4.27
2018-07-24T20:14:43.366Z,3.47
2018-07-24T20:17:11.867Z,5.87
2018-07-24T20:19:40.346Z,4.63
2018-07-24T20:22:08.926Z,5.33
2018-07-24T20:24:37.573Z,5.43
2018-07-24T20:27:06.257Z,3.70
2018-07-24T20:29:34.747Z,5.00
2018-07-24T20:32:03.238Z,3.60
2018-07-24T20:34:31.831Z,3.53
2018-07-24T20:37:00.299Z,5.80
2018-07-24T20:39:28.813Z,6.33
2018-07-24T20:41:57.262Z,4.47
2018-07-24T20:44:25.794Z,4.00
2018-07-24T20:46:54.239Z,3.50
2018-07-24T20:49:22.673Z,4.13
2018-07-24T20:51:51.154Z,5.37
2018-07-24T20:54:19.809Z,3.80
2018-07-24T20:56:48.338Z,6.13
2018-07-24T20:59:16.826Z,4.23
2018-07-24T21:01:45.306Z,5.40
2018-07-24T21:04:13.820Z,5.30
2018-07-24T21:06:42.310Z,7.00
2018-07-24T21:09:11.125Z,4.53
2018-07-24T21:11:40.553Z,7.13
2018-07-24T21:14:10.061Z,4.57
2018-07-24T21:16:38.610Z,5.33
2018-07-24T21:19:07.740Z,5.57
2018-07-24T21:21:36.578Z,4.00
2018-07-24T21:24:05.137Z,4.53
2018-07-24T21:26:33.626Z,6.77
2018-07-24T21:29:02.153Z,7.07
2018-07-24T21:31:30.577Z,7.33
2018-07-24T21:33:59.083Z,6.70
2018-07-24T21:36:27.652Z,5.63
2018-07-24T21:38:56.135Z,6.60
2018-07-24T21:41:24.680Z,5.37
2018-07-24T21:43:53.247Z,5.57
2018-07-24T21:46:21.722Z,7.13
2018-07-24T21:48:50.173Z,4.80
2018-07-24T21:51:18.722Z,6.17
2018-07-24T21:53:47.255Z,13.77
2018-07-24T21:56:15.773Z,5.97
2018-07-24T21:58:44.282Z,4.73
2018-07-24T22:01:13.761Z,5.13
2018-07-24T22:03:42.666Z,6.23
2018-07-24T22:06:11.166Z,7.50
2018-07-24T22:08:39.804Z,5.63
2018-07-24T22:11:08.283Z,6.77
2018-07-24T22:13:36.889Z,5.27
2018-07-24T22:16:05.442Z,7.63
2018-07-24T22:18:33.996Z,5.17
2018-07-24T22:21:02.522Z,6.23
2018-07-24T22:23:31.076Z,5.00
2018-07-24T22:25:59.587Z,6.80
2018-07-24T22:28:28.124Z,5.30
2018-07-24T22:30:56.660Z,6.63
2018-07-24T22:33:25.195Z,5.93
2018-07-24T22:35:53.805Z,8.43
2018-07-24T22:38:22.416Z,5.43
2018-07-24T22:40:50.992Z,7.60
2018-07-24T22:43:19.658Z,6.77
2018-07-24T22:45:48.153Z,8.20
2018-07-24T22:48:16.655Z,6.97
2018-07-24T22:50:45.192Z,9.33
2018-07-24T22:53:13.884Z,7.03
2018-07-24T22:55:42.448Z,5.87
2018-07-24T22:58:11.087Z,6.17
2018-07-24T23:00:39.588Z,6.03
2018-07-24T23:03:08.163Z,6.57
2018-07-24T23:05:36.942Z,6.53
2018-07-24T23:08:05.758Z,8.57
2018-07-24T23:10:34.508Z,8.47
2018-07-24T23:13:04.713Z,5.43
2018-07-24T23:15:34.254Z,6.73
2018-07-24T23:18:05.693Z,8.73
2018-07-24T23:20:34.198Z,7.47
2018-07-24T23:23:02.728Z,8.17
2018-07-24T23:25:31.218Z,6.33
2018-07-24T23:27:59.683Z,6.43
2018-07-24T23:30:28.207Z,8.20
2018-07-24T23:32:56.752Z,6.87
2018-07-24T23:35:26.182Z,6.43
2018-07-24T23:37:55.168Z,6.23
2018-07-24T23:40:23.649Z,6.03
2018-07-24T23:42:52.255Z,9.27
2018-07-24T23:45:20.801Z,6.20
2018-07-24T23:47:49.314Z,6.17
2018-07-24T23:50:17.795Z,11.33
2018-07-24T23:52:46.359Z,7.13
2018-07-24T23:55:14.952Z,5.87
2018-07-24T23:57:43.438Z,9.97
